sensor_id;sensor_type;location;lat;lon;timestamp;P1;durP1;ratioP1;P2;durP2;ratioP2
29384;SDS011;16367;48.736;9.218;2023-05-20T00:01:59;5.93;;;3.00;;
29384;SDS011;16367;48.736;9.218;2023-05-20T00:04:02;7.45;;;3.50;;
29384;SDS011;16367;48.736;9.218;2023-05-20T00:06:05;6.85;;;3.35;;
29384;SDS011;16367;48.736;9.218;2023-05-20T00:08:08;6.68;;;3.47;;
29384;SDS011;16367;48.736;9.218;2023-05-20T00:10:11;6.78;;;3.13;;
29384;SDS011;16367;48.736;9.218;2023-05-20T00:12:14;9.05;;;3.60;;
29384;SDS011;16367;48.736;9.218;2023-05-20T00:14:16;8.82;;;3.80;;
29384;SDS011;16367;48.736;9.218;2023-05-20T00:16:19;6.40;;;3.58;;
29384;SDS011;16367;48.736;9.218;2023-05-20T00:18:23;13.93;;;5.50;;
29384;SDS011;16367;48.736;9.218;2023-05-20T00:20:26;6.63;;;3.38;;
29384;SDS011;16367;48.736;9.218;2023-05-20T00:22:30;6.60;;;3.63;;
29384;SDS011;16367;48.736;9.218;2023-05-20T00:24:32;7.00;;;3.50;;
29384;SDS011;16367;48.736;9.218;2023-05-20T00:26:35;8.13;;;3.47;;
29384;SDS011;16367;48.736;9.218;2023-05-20T00:28:38;8.02;;;3.80;;
29384;SDS011;16367;48.736;9.218;2023-05-20T00:30:41;6.28;;;3.88;;
29384;SDS011;16367;48.736;9.218;2023-05-20T00:32:43;6.95;;;3.53;;
29384;SDS011;16367;48.736;9.218;2023-05-20T00:34:55;10.77;;;3.88;;
29384;SDS011;16367;48.736;9.218;2023-05-20T00:36:58;8.45;;;3.95;;
29384;SDS011;16367;48.736;9.218;2023-05-20T00:39:01;7.90;;;4.05;;
29384;SDS011;16367;48.736;9.218;2023-05-20T00:41:04;8.63;;;4.30;;
29384;SDS011;16367;48.736;9.218;2023-05-20T00:43:08;8.27;;;3.53;;
29384;SDS011;16367;48.736;9.218;2023-05-20T00:45:11;7.95;;;4.25;;
29384;SDS011;16367;48.736;9.218;2023-05-20T00:47:14;7.15;;;3.90;;
29384;SDS011;16367;48.736;9.218;2023-05-20T00:49:18;9.00;;;3.90;;
29384;SDS011;16367;48.736;9.218;2023-05-20T00:51:22;7.95;;;4.10;;
29384;SDS011;16367;48.736;9.218;2023-05-20T00:53:25;6.38;;;4.03;;
29384;SDS011;16367;48.736;9.218;2023-05-20T00:55:27;7.78;;;3.58;;
29384;SDS011;16367;48.736;9.218;2023-05-20T00:57:30;8.35;;;4.32;;
29384;SDS011;16367;48.736;9.218;2023-05-20T00:59:33;8.07;;;3.85;;
29384;SDS011;16367;48.736;9.218;2023-05-20T01:01:37;7.15;;;4.10;;
29384;SDS011;16367;48.736;9.218;2023-05-20T01:03:41;7.85;;;4.18;;
29384;SDS011;16367;48.736;9.218;2023-05-20T01:05:44;6.63;;;3.33;;
29384;SDS011;16367;48.736;9.218;2023-05-20T01:07:48;8.02;;;3.97;;
29384;SDS011;16367;48.736;9.218;2023-05-20T01:09:51;7.90;;;4.05;;
29384;SDS011;16367;48.736;9.218;2023-05-20T01:11:58;7.38;;;4.35;;
29384;SDS011;16367;48.736;9.218;2023-05-20T01:14:05;6.15;;;3.88;;
29384;SDS011;16367;48.736;9.218;2023-05-20T01:16:10;8.95;;;3.90;;
29384;SDS011;16367;48.736;9.218;2023-05-20T01:18:13;6.95;;;3.85;;
29384;SDS011;16367;48.736;9.218;2023-05-20T01:20:18;10.13;;;4.35;;
29384;SDS011;16367;48.736;9.218;2023-05-20T01:22:24;7.72;;;4.43;;
29384;SDS011;16367;48.736;9.218;2023-05-20T01:24:28;9.57;;;4.28;;
29384;SDS011;16367;48.736;9.218;2023-05-20T01:26:31;7.32;;;4.15;;
29384;SDS011;16367;48.736;9.218;2023-05-20T01:28:38;8.45;;;4.47;;
29384;SDS011;16367;48.736;9.218;2023-05-20T01:30:45;10.45;;;3.80;;
29384;SDS011;16367;48.736;9.218;2023-05-20T01:32:53;8.27;;;3.50;;
29384;SDS011;16367;48.736;9.218;2023-05-20T01:34:59;9.85;;;4.30;;
29384;SDS011;16367;48.736;9.218;2023-05-20T01:37:03;6.97;;;3.83;;
29384;SDS011;16367;48.736;9.218;2023-05-20T01:39:08;7.88;;;4.10;;
29384;SDS011;16367;48.736;9.218;2023-05-20T01:41:11;6.43;;;4.10;;
29384;SDS011;16367;48.736;9.218;2023-05-20T01:43:14;7.68;;;3.95;;
29384;SDS011;16367;48.736;9.218;2023-05-20T01:45:18;8.18;;;3.58;;
29384;SDS011;16367;48.736;9.218;2023-05-20T01:47:21;6.05;;;3.35;;
29384;SDS011;16367;48.736;9.218;2023-05-20T01:49:24;6.82;;;3.92;;
29384;SDS011;16367;48.736;9.218;2023-05-20T01:51:27;7.60;;;3.97;;
29384;SDS011;16367;48.736;9.218;2023-05-20T01:53:31;9.10;;;3.97;;
29384;SDS011;16367;48.736;9.218;2023-05-20T01:55:35;7.05;;;4.07;;
29384;SDS011;16367;48.736;9.218;2023-05-20T01:57:38;8.05;;;3.83;;
29384;SDS011;16367;48.736;9.218;2023-05-20T01:59:40;6.97;;;4.40;;
29384;SDS011;16367;48.736;9.218;2023-05-20T02:01:43;6.72;;;3.72;;
29384;SDS011;16367;48.736;9.218;2023-05-20T02:03:46;7.88;;;4.13;;
29384;SDS011;16367;48.736;9.218;2023-05-20T02:05:49;7.85;;;4.20;;
29384;SDS011;16367;48.736;9.218;2023-05-20T02:07:52;8.40;;;4.00;;
29384;SDS011;16367;48.736;9.218;2023-05-20T02:09:55;7.45;;;4.00;;
29384;SDS011;16367;48.736;9.218;2023-05-20T02:11:59;8.80;;;4.10;;
29384;SDS011;16367;48.736;9.218;2023-05-20T02:14:02;8.40;;;4.60;;
29384;SDS011;16367;48.736;9.218;2023-05-20T02:16:05;7.25;;;4.20;;
29384;SDS011;16367;48.736;9.218;2023-05-20T02:18:08;7.22;;;4.30;;
29384;SDS011;16367;48.736;9.218;2023-05-20T02:20:12;11.05;;;4.60;;
29384;SDS011;16367;48.736;9.218;2023-05-20T02:22:15;7.85;;;5.03;;
29384;SDS011;16367;48.736;9.218;2023-05-20T02:24:18;7.70;;;4.18;;
29384;SDS011;16367;48.736;9.218;2023-05-20T02:26:22;11.43;;;4.57;;
29384;SDS011;16367;48.736;9.218;2023-05-20T02:28:27;9.20;;;4.45;;
29384;SDS011;16367;48.736;9.218;2023-05-20T02:30:29;8.60;;;4.85;;
29384;SDS011;16367;48.736;9.218;2023-05-20T02:32:32;8.95;;;4.60;;
29384;SDS011;16367;48.736;9.218;2023-05-20T02:34:35;10.63;;;5.63;;
29384;SDS011;16367;48.736;9.218;2023-05-20T02:36:38;6.90;;;3.83;;
29384;SDS011;16367;48.736;9.218;2023-05-20T02:38:40;8.48;;;4.70;;
29384;SDS011;16367;48.736;9.218;2023-05-20T02:40:43;7.18;;;4.28;;
29384;SDS011;16367;48.736;9.218;2023-05-20T02:42:46;8.32;;;5.05;;
29384;SDS011;16367;48.736;9.218;2023-05-20T02:44:50;7.18;;;4.47;;
29384;SDS011;16367;48.736;9.218;2023-05-20T02:46:56;9.35;;;4.97;;
29384;SDS011;16367;48.736;9.218;2023-05-20T02:48:59;9.80;;;4.65;;
29384;SDS011;16367;48.736;9.218;2023-05-20T02:51:02;8.38;;;4.75;;
29384;SDS011;16367;48.736;9.218;2023-05-20T02:53:05;10.85;;;4.70;;
29384;SDS011;16367;48.736;9.218;2023-05-20T02:55:08;6.82;;;4.70;;
29384;SDS011;16367;48.736;9.218;2023-05-20T02:57:11;7.28;;;4.05;;
29384;SDS011;16367;48.736;9.218;2023-05-20T02:59:14;10.40;;;5.13;;
29384;SDS011;16367;48.736;9.218;2023-05-20T03:01:18;8.55;;;4.65;;
29384;SDS011;16367;48.736;9.218;2023-05-20T03:03:21;10.35;;;4.78;;
29384;SDS011;16367;48.736;9.218;2023-05-20T03:05:24;7.32;;;4.75;;
29384;SDS011;16367;48.736;9.218;2023-05-20T03:07:27;7.97;;;4.38;;
29384;SDS011;16367;48.736;9.218;2023-05-20T03:09:30;8.63;;;5.03;;
29384;SDS011;16367;48.736;9.218;2023-05-20T03:11:33;8.65;;;5.00;;
29384;SDS011;16367;48.736;9.218;2023-05-20T03:13:35;8.02;;;4.57;;
29384;SDS011;16367;48.736;9.218;2023-05-20T03:15:38;9.30;;;5.15;;
29384;SDS011;16367;48.736;9.218;2023-05-20T03:17:43;8.02;;;4.82;;
29384;SDS011;16367;48.736;9.218;2023-05-20T03:19:45;8.30;;;5.15;;
29384;SDS011;16367;48.736;9.218;2023-05-20T03:21:48;8.38;;;4.88;;
29384;SDS011;16367;48.736;9.218;2023-05-20T03:23:51;7.10;;;4.68;;
29384;SDS011;16367;48.736;9.218;2023-05-20T03:25:54;8.05;;;4.63;;
29384;SDS011;16367;48.736;9.218;2023-05-20T03:27:57;9.43;;;4.93;;
29384;SDS011;16367;48.736;9.218;2023-05-20T03:30:01;9.82;;;5.20;;
29384;SDS011;16367;48.736;9.218;2023-05-20T03:32:05;9.30;;;5.50;;
29384;SDS011;16367;48.736;9.218;2023-05-20T03:34:12;8.48;;;5.00;;
29384;SDS011;16367;48.736;9.218;2023-05-20T03:36:15;8.65;;;5.13;;
29384;SDS011;16367;48.736;9.218;2023-05-20T03:38:17;8.15;;;4.75;;
29384;SDS011;16367;48.736;9.218;2023-05-20T03:40:20;8.23;;;4.97;;
29384;SDS011;16367;48.736;9.218;2023-05-20T03:42:23;8.98;;;5.25;;
29384;SDS011;16367;48.736;9.218;2023-05-20T03:44:26;8.18;;;5.22;;
29384;SDS011;16367;48.736;9.218;2023-05-20T03:46:29;8.60;;;4.88;;
29384;SDS011;16367;48.736;9.218;2023-05-20T03:48:32;9.75;;;5.15;;
29384;SDS011;16367;48.736;9.218;2023-05-20T03:50:37;8.45;;;5.07;;
29384;SDS011;16367;48.736;9.218;2023-05-20T03:52:39;9.23;;;5.45;;
29384;SDS011;16367;48.736;9.218;2023-05-20T03:54:42;8.73;;;4.97;;
29384;SDS011;16367;48.736;9.218;2023-05-20T03:56:45;9.55;;;5.22;;
29384;SDS011;16367;48.736;9.218;2023-05-20T03:58:49;8.00;;;5.30;;
29384;SDS011;16367;48.736;9.218;2023-05-20T04:00:52;8.80;;;4.80;;
29384;SDS011;16367;48.736;9.218;2023-05-20T04:02:55;10.13;;;5.35;;
29384;SDS011;16367;48.736;9.218;2023-05-20T04:04:58;7.93;;;5.15;;
29384;SDS011;16367;48.736;9.218;2023-05-20T04:07:03;8.05;;;4.75;;
29384;SDS011;16367;48.736;9.218;2023-05-20T04:09:06;9.27;;;5.30;;
29384;SDS011;16367;48.736;9.218;2023-05-20T04:11:08;9.07;;;5.18;;
29384;SDS011;16367;48.736;9.218;2023-05-20T04:13:11;8.43;;;5.20;;
29384;SDS011;16367;48.736;9.218;2023-05-20T04:15:14;8.98;;;5.38;;
29384;SDS011;16367;48.736;9.218;2023-05-20T04:17:17;8.80;;;5.38;;
29384;SDS011;16367;48.736;9.218;2023-05-20T04:19:20;9.05;;;5.57;;
29384;SDS011;16367;48.736;9.218;2023-05-20T04:21:24;8.90;;;5.07;;
29384;SDS011;16367;48.736;9.218;2023-05-20T04:23:28;7.38;;;4.85;;
29384;SDS011;16367;48.736;9.218;2023-05-20T04:25:31;8.82;;;5.00;;
29384;SDS011;16367;48.736;9.218;2023-05-20T04:27:36;8.50;;;4.90;;
29384;SDS011;16367;48.736;9.218;2023-05-20T04:29:40;8.57;;;4.68;;
29384;SDS011;16367;48.736;9.218;2023-05-20T04:31:46;6.80;;;4.43;;
29384;SDS011;16367;48.736;9.218;2023-05-20T04:33:49;8.73;;;5.07;;
29384;SDS011;16367;48.736;9.218;2023-05-20T04:35:52;7.85;;;4.82;;
29384;SDS011;16367;48.736;9.218;2023-05-20T04:37:58;8.60;;;4.72;;
29384;SDS011;16367;48.736;9.218;2023-05-20T04:40:04;9.13;;;4.72;;
29384;SDS011;16367;48.736;9.218;2023-05-20T04:42:15;7.63;;;4.53;;
29384;SDS011;16367;48.736;9.218;2023-05-20T04:44:22;9.05;;;4.80;;
29384;SDS011;16367;48.736;9.218;2023-05-20T04:46:27;11.45;;;5.10;;
29384;SDS011;16367;48.736;9.218;2023-05-20T04:48:30;9.18;;;5.03;;
29384;SDS011;16367;48.736;9.218;2023-05-20T04:50:33;10.40;;;5.90;;
29384;SDS011;16367;48.736;9.218;2023-05-20T04:52:36;8.30;;;4.60;;
29384;SDS011;16367;48.736;9.218;2023-05-20T04:54:39;7.13;;;5.05;;
29384;SDS011;16367;48.736;9.218;2023-05-20T04:56:43;8.60;;;4.40;;
29384;SDS011;16367;48.736;9.218;2023-05-20T04:58:46;7.10;;;4.43;;
29384;SDS011;16367;48.736;9.218;2023-05-20T05:00:50;9.73;;;4.88;;
29384;SDS011;16367;48.736;9.218;2023-05-20T05:02:53;8.65;;;4.70;;
29384;SDS011;16367;48.736;9.218;2023-05-20T05:04:56;6.90;;;4.40;;
29384;SDS011;16367;48.736;9.218;2023-05-20T05:06:58;7.55;;;4.38;;
29384;SDS011;16367;48.736;9.218;2023-05-20T05:09:01;7.68;;;4.63;;
29384;SDS011;16367;48.736;9.218;2023-05-20T05:11:04;7.95;;;4.85;;
29384;SDS011;16367;48.736;9.218;2023-05-20T05:13:09;8.32;;;4.78;;
29384;SDS011;16367;48.736;9.218;2023-05-20T05:15:12;10.38;;;4.85;;
29384;SDS011;16367;48.736;9.218;2023-05-20T05:17:14;8.07;;;4.80;;
29384;SDS011;16367;48.736;9.218;2023-05-20T05:19:17;9.15;;;4.95;;
29384;SDS011;16367;48.736;9.218;2023-05-20T05:21:20;9.45;;;6.00;;
29384;SDS011;16367;48.736;9.218;2023-05-20T05:23:23;7.80;;;5.15;;
29384;SDS011;16367;48.736;9.218;2023-05-20T05:25:26;8.38;;;5.07;;
29384;SDS011;16367;48.736;9.218;2023-05-20T05:27:29;8.60;;;4.57;;
29384;SDS011;16367;48.736;9.218;2023-05-20T05:29:33;8.23;;;4.70;;
29384;SDS011;16367;48.736;9.218;2023-05-20T05:31:36;7.60;;;4.22;;
29384;SDS011;16367;48.736;9.218;2023-05-20T05:33:38;8.45;;;4.53;;
29384;SDS011;16367;48.736;9.218;2023-05-20T05:35:41;7.72;;;4.55;;
29384;SDS011;16367;48.736;9.218;2023-05-20T05:37:44;7.22;;;4.78;;
29384;SDS011;16367;48.736;9.218;2023-05-20T05:39:47;7.53;;;4.28;;
29384;SDS011;16367;48.736;9.218;2023-05-20T05:41:50;10.27;;;4.82;;
29384;SDS011;16367;48.736;9.218;2023-05-20T05:43:54;9.00;;;4.40;;
29384;SDS011;16367;48.736;9.218;2023-05-20T05:45:58;7.68;;;4.22;;
29384;SDS011;16367;48.736;9.218;2023-05-20T05:48:01;7.60;;;4.68;;
29384;SDS011;16367;48.736;9.218;2023-05-20T05:50:04;7.93;;;4.13;;
29384;SDS011;16367;48.736;9.218;2023-05-20T05:52:07;9.55;;;4.93;;
29384;SDS011;16367;48.736;9.218;2023-05-20T05:54:10;8.93;;;4.65;;
29384;SDS011;16367;48.736;9.218;2023-05-20T05:56:12;11.15;;;4.97;;
29384;SDS011;16367;48.736;9.218;2023-05-20T05:58:15;7.43;;;4.35;;
29384;SDS011;16367;48.736;9.218;2023-05-20T06:00:18;7.57;;;4.55;;
29384;SDS011;16367;48.736;9.218;2023-05-20T06:02:22;7.90;;;4.80;;
29384;SDS011;16367;48.736;9.218;2023-05-20T06:04:25;9.68;;;4.75;;
29384;SDS011;16367;48.736;9.218;2023-05-20T06:06:28;7.32;;;4.40;;
29384;SDS011;16367;48.736;9.218;2023-05-20T06:08:31;7.93;;;4.40;;
29384;SDS011;16367;48.736;9.218;2023-05-20T06:10:34;8.07;;;4.60;;
29384;SDS011;16367;48.736;9.218;2023-05-20T06:12:36;7.43;;;4.65;;
29384;SDS011;16367;48.736;9.218;2023-05-20T06:14:39;9.88;;;5.00;;
29384;SDS011;16367;48.736;9.218;2023-05-20T06:16:42;7.97;;;4.03;;
29384;SDS011;16367;48.736;9.218;2023-05-20T06:18:46;7.30;;;4.13;;
29384;SDS011;16367;48.736;9.218;2023-05-20T06:20:53;9.32;;;4.78;;
29384;SDS011;16367;48.736;9.218;2023-05-20T06:22:56;9.23;;;4.55;;
29384;SDS011;16367;48.736;9.218;2023-05-20T06:24:59;9.27;;;4.75;;
29384;SDS011;16367;48.736;9.218;2023-05-20T06:27:02;8.30;;;4.65;;
29384;SDS011;16367;48.736;9.218;2023-05-20T06:29:05;7.93;;;4.53;;
29384;SDS011;16367;48.736;9.218;2023-05-20T06:31:08;7.07;;;4.15;;
29384;SDS011;16367;48.736;9.218;2023-05-20T06:33:11;6.93;;;4.43;;
29384;SDS011;16367;48.736;9.218;2023-05-20T06:35:15;9.25;;;4.40;;
29384;SDS011;16367;48.736;9.218;2023-05-20T06:37:18;9.43;;;4.38;;
29384;SDS011;16367;48.736;9.218;2023-05-20T06:39:24;8.18;;;4.70;;
29384;SDS011;16367;48.736;9.218;2023-05-20T06:41:27;9.20;;;4.60;;
29384;SDS011;16367;48.736;9.218;2023-05-20T06:43:29;8.02;;;4.60;;
29384;SDS011;16367;48.736;9.218;2023-05-20T06:45:32;10.05;;;4.32;;
29384;SDS011;16367;48.736;9.218;2023-05-20T06:47:35;7.35;;;4.43;;
29384;SDS011;16367;48.736;9.218;2023-05-20T06:49:38;7.50;;;4.78;;
29384;SDS011;16367;48.736;9.218;2023-05-20T06:51:42;8.63;;;4.88;;
29384;SDS011;16367;48.736;9.218;2023-05-20T06:53:45;9.10;;;4.80;;
29384;SDS011;16367;48.736;9.218;2023-05-20T06:55:48;8.25;;;4.85;;
29384;SDS011;16367;48.736;9.218;2023-05-20T06:57:50;9.93;;;4.65;;
29384;SDS011;16367;48.736;9.218;2023-05-20T06:59:53;8.00;;;4.55;;
29384;SDS011;16367;48.736;9.218;2023-05-20T07:01:56;8.23;;;4.35;;
29384;SDS011;16367;48.736;9.218;2023-05-20T07:03:59;9.18;;;4.55;;
29384;SDS011;16367;48.736;9.218;2023-05-20T07:06:02;9.70;;;4.93;;
29384;SDS011;16367;48.736;9.218;2023-05-20T07:08:06;7.45;;;4.78;;
29384;SDS011;16367;48.736;9.218;2023-05-20T07:10:09;7.70;;;4.90;;
29384;SDS011;16367;48.736;9.218;2023-05-20T07:12:11;6.95;;;4.30;;
29384;SDS011;16367;48.736;9.218;2023-05-20T07:14:14;7.88;;;4.28;;
29384;SDS011;16367;48.736;9.218;2023-05-20T07:16:17;9.48;;;4.65;;
29384;SDS011;16367;48.736;9.218;2023-05-20T07:18:20;7.90;;;4.57;;
29384;SDS011;16367;48.736;9.218;2023-05-20T07:20:22;8.35;;;4.65;;
29384;SDS011;16367;48.736;9.218;2023-05-20T07:22:25;11.00;;;4.35;;
29384;SDS011;16367;48.736;9.218;2023-05-20T07:24:29;8.73;;;4.70;;
29384;SDS011;16367;48.736;9.218;2023-05-20T07:26:32;8.35;;;4.43;;
29384;SDS011;16367;48.736;9.218;2023-05-20T07:28:36;10.35;;;5.30;;
29384;SDS011;16367;48.736;9.218;2023-05-20T07:30:40;8.23;;;4.55;;
29384;SDS011;16367;48.736;9.218;2023-05-20T07:32:43;7.38;;;4.60;;
29384;SDS011;16367;48.736;9.218;2023-05-20T07:34:45;12.07;;;5.25;;
29384;SDS011;16367;48.736;9.218;2023-05-20T07:36:48;9.57;;;4.88;;
29384;SDS011;16367;48.736;9.218;2023-05-20T07:38:51;9.23;;;4.55;;
29384;SDS011;16367;48.736;9.218;2023-05-20T07:41:06;8.38;;;4.43;;
29384;SDS011;16367;48.736;9.218;2023-05-20T07:43:09;8.05;;;4.22;;
29384;SDS011;16367;48.736;9.218;2023-05-20T07:45:12;10.38;;;4.90;;
29384;SDS011;16367;48.736;9.218;2023-05-20T07:47:14;8.30;;;3.78;;
29384;SDS011;16367;48.736;9.218;2023-05-20T07:49:17;8.50;;;4.50;;
29384;SDS011;16367;48.736;9.218;2023-05-20T07:51:20;8.65;;;4.35;;
29384;SDS011;16367;48.736;9.218;2023-05-20T07:53:23;7.35;;;4.32;;
29384;SDS011;16367;48.736;9.218;2023-05-20T07:55:26;7.70;;;4.78;;
29384;SDS011;16367;48.736;9.218;2023-05-20T07:57:30;8.45;;;5.22;;
29384;SDS011;16367;48.736;9.218;2023-05-20T07:59:33;8.80;;;5.22;;
29384;SDS011;16367;48.736;9.218;2023-05-20T08:01:35;8.55;;;4.25;;
29384;SDS011;16367;48.736;9.218;2023-05-20T08:03:38;8.40;;;4.85;;
29384;SDS011;16367;48.736;9.218;2023-05-20T08:05:41;8.50;;;4.72;;
29384;SDS011;16367;48.736;9.218;2023-05-20T08:07:44;8.80;;;4.80;;
29384;SDS011;16367;48.736;9.218;2023-05-20T08:09:46;10.27;;;4.75;;
29384;SDS011;16367;48.736;9.218;2023-05-20T08:11:49;8.68;;;4.80;;
29384;SDS011;16367;48.736;9.218;2023-05-20T08:13:53;7.82;;;4.75;;
29384;SDS011;16367;48.736;9.218;2023-05-20T08:15:56;7.35;;;4.78;;
29384;SDS011;16367;48.736;9.218;2023-05-20T08:17:59;8.27;;;4.82;;
29384;SDS011;16367;48.736;9.218;2023-05-20T08:20:02;7.20;;;4.80;;
29384;SDS011;16367;48.736;9.218;2023-05-20T08:22:05;9.40;;;4.30;;
29384;SDS011;16367;48.736;9.218;2023-05-20T08:24:09;6.75;;;4.35;;
29384;SDS011;16367;48.736;9.218;2023-05-20T08:26:11;8.68;;;4.50;;
29384;SDS011;16367;48.736;9.218;2023-05-20T08:28:14;8.63;;;4.72;;
29384;SDS011;16367;48.736;9.218;2023-05-20T08:30:19;10.02;;;4.88;;
29384;SDS011;16367;48.736;9.218;2023-05-20T08:32:22;7.82;;;4.78;;
29384;SDS011;16367;48.736;9.218;2023-05-20T08:34:25;8.80;;;4.47;;
29384;SDS011;16367;48.736;9.218;2023-05-20T08:36:27;7.63;;;4.38;;
29384;SDS011;16367;48.736;9.218;2023-05-20T08:38:30;8.13;;;4.65;;
29384;SDS011;16367;48.736;9.218;2023-05-20T08:40:33;8.65;;;4.40;;
29384;SDS011;16367;48.736;9.218;2023-05-20T08:42:39;8.30;;;4.88;;
29384;SDS011;16367;48.736;9.218;2023-05-20T08:44:43;6.43;;;4.00;;
29384;SDS011;16367;48.736;9.218;2023-05-20T08:46:48;8.63;;;4.30;;
29384;SDS011;16367;48.736;9.218;2023-05-20T08:48:52;6.78;;;4.15;;
29384;SDS011;16367;48.736;9.218;2023-05-20T08:50:56;8.63;;;4.30;;
29384;SDS011;16367;48.736;9.218;2023-05-20T08:52:59;7.72;;;4.28;;
29384;SDS011;16367;48.736;9.218;2023-05-20T08:55:02;6.68;;;4.40;;
29384;SDS011;16367;48.736;9.218;2023-05-20T08:57:08;7.32;;;4.55;;
29384;SDS011;16367;48.736;9.218;2023-05-20T08:59:14;8.20;;;5.10;;
29384;SDS011;16367;48.736;9.218;2023-05-20T09:01:18;8.80;;;4.72;;
29384;SDS011;16367;48.736;9.218;2023-05-20T09:03:26;7.57;;;4.20;;
29384;SDS011;16367;48.736;9.218;2023-05-20T09:05:29;7.05;;;4.13;;
29384;SDS011;16367;48.736;9.218;2023-05-20T09:07:33;6.72;;;4.18;;
29384;SDS011;16367;48.736;9.218;2023-05-20T09:09:36;6.85;;;4.53;;
29384;SDS011;16367;48.736;9.218;2023-05-20T09:11:38;8.15;;;5.00;;
29384;SDS011;16367;48.736;9.218;2023-05-20T09:13:42;7.53;;;4.50;;
29384;SDS011;16367;48.736;9.218;2023-05-20T09:15:44;7.05;;;4.35;;
29384;SDS011;16367;48.736;9.218;2023-05-20T09:17:48;6.22;;;3.70;;
29384;SDS011;16367;48.736;9.218;2023-05-20T09:19:52;5.80;;;3.92;;
29384;SDS011;16367;48.736;9.218;2023-05-20T09:21:55;7.47;;;4.65;;
29384;SDS011;16367;48.736;9.218;2023-05-20T09:24:00;8.18;;;4.70;;
29384;SDS011;16367;48.736;9.218;2023-05-20T09:26:03;6.60;;;4.40;;
29384;SDS011;16367;48.736;9.218;2023-05-20T09:28:06;8.13;;;4.60;;
29384;SDS011;16367;48.736;9.218;2023-05-20T09:30:10;7.22;;;4.20;;
29384;SDS011;16367;48.736;9.218;2023-05-20T09:32:14;8.38;;;4.78;;
29384;SDS011;16367;48.736;9.218;2023-05-20T09:34:18;7.00;;;4.65;;
29384;SDS011;16367;48.736;9.218;2023-05-20T09:36:23;7.85;;;4.40;;
29384;SDS011;16367;48.736;9.218;2023-05-20T09:38:30;8.55;;;5.28;;
29384;SDS011;16367;48.736;9.218;2023-05-20T09:40:38;9.05;;;4.63;;
29384;SDS011;16367;48.736;9.218;2023-05-20T09:42:46;9.00;;;4.47;;
29384;SDS011;16367;48.736;9.218;2023-05-20T09:44:54;6.35;;;3.90;;
29384;SDS011;16367;48.736;9.218;2023-05-20T09:46:58;7.75;;;4.93;;
29384;SDS011;16367;48.736;9.218;2023-05-20T09:49:02;10.25;;;4.30;;
29384;SDS011;16367;48.736;9.218;2023-05-20T09:51:07;7.25;;;4.50;;
29384;SDS011;16367;48.736;9.218;2023-05-20T09:53:11;7.30;;;3.85;;
29384;SDS011;16367;48.736;9.218;2023-05-20T09:55:15;8.75;;;4.18;;
29384;SDS011;16367;48.736;9.218;2023-05-20T09:57:20;7.65;;;4.68;;
29384;SDS011;16367;48.736;9.218;2023-05-20T09:59:23;7.88;;;4.07;;
29384;SDS011;16367;48.736;9.218;2023-05-20T10:01:28;6.88;;;4.10;;
29384;SDS011;16367;48.736;9.218;2023-05-20T10:03:31;7.82;;;5.07;;
29384;SDS011;16367;48.736;9.218;2023-05-20T10:05:35;7.80;;;4.60;;
29384;SDS011;16367;48.736;9.218;2023-05-20T10:07:55;8.15;;;5.40;;
29384;SDS011;16367;48.736;9.218;2023-05-20T10:10:16;7.65;;;4.80;;
29384;SDS011;16367;48.736;9.218;2023-05-20T10:12:31;7.15;;;5.13;;
29384;SDS011;16367;48.736;9.218;2023-05-20T10:14:39;8.38;;;4.40;;
29384;SDS011;16367;48.736;9.218;2023-05-20T10:16:49;7.50;;;4.50;;
29384;SDS011;16367;48.736;9.218;2023-05-20T10:19:12;7.88;;;4.70;;
29384;SDS011;16367;48.736;9.218;2023-05-20T10:21:29;8.60;;;4.80;;
29384;SDS011;16367;48.736;9.218;2023-05-20T10:23:32;8.43;;;4.65;;
29384;SDS011;16367;48.736;9.218;2023-05-20T10:25:38;7.95;;;5.13;;
29384;SDS011;16367;48.736;9.218;2023-05-20T10:28:03;7.70;;;4.82;;
29384;SDS011;16367;48.736;9.218;2023-05-20T10:30:14;9.40;;;4.22;;
29384;SDS011;16367;48.736;9.218;2023-05-20T10:32:22;9.18;;;4.43;;
29384;SDS011;16367;48.736;9.218;2023-05-20T10:34:26;8.93;;;4.43;;
29384;SDS011;16367;48.736;9.218;2023-05-20T10:36:31;6.50;;;4.18;;
29384;SDS011;16367;48.736;9.218;2023-05-20T10:38:34;7.50;;;4.35;;
29384;SDS011;16367;48.736;9.218;2023-05-20T10:40:38;9.73;;;4.47;;
29384;SDS011;16367;48.736;9.218;2023-05-20T10:42:42;7.75;;;4.60;;
29384;SDS011;16367;48.736;9.218;2023-05-20T10:44:45;6.75;;;4.80;;
29384;SDS011;16367;48.736;9.218;2023-05-20T10:47:00;7.80;;;4.40;;
29384;SDS011;16367;48.736;9.218;2023-05-20T10:49:23;8.35;;;4.50;;
29384;SDS011;16367;48.736;9.218;2023-05-20T10:51:28;7.07;;;4.38;;
29384;SDS011;16367;48.736;9.218;2023-05-20T10:53:37;7.80;;;4.85;;
29384;SDS011;16367;48.736;9.218;2023-05-20T10:55:47;8.30;;;4.57;;
29384;SDS011;16367;48.736;9.218;2023-05-20T10:57:51;7.22;;;4.05;;
29384;SDS011;16367;48.736;9.218;2023-05-20T10:59:55;7.25;;;4.28;;
29384;SDS011;16367;48.736;9.218;2023-05-20T11:01:58;6.85;;;4.07;;
29384;SDS011;16367;48.736;9.218;2023-05-20T11:04:02;7.55;;;4.38;;
29384;SDS011;16367;48.736;9.218;2023-05-20T11:06:12;8.23;;;4.47;;
29384;SDS011;16367;48.736;9.218;2023-05-20T11:08:18;7.68;;;4.30;;
29384;SDS011;16367;48.736;9.218;2023-05-20T11:10:29;7.55;;;4.30;;
29384;SDS011;16367;48.736;9.218;2023-05-20T11:12:34;7.07;;;4.00;;
29384;SDS011;16367;48.736;9.218;2023-05-20T11:14:37;7.22;;;3.97;;
29384;SDS011;16367;48.736;9.218;2023-05-20T11:16:40;8.13;;;4.60;;
29384;SDS011;16367;48.736;9.218;2023-05-20T11:18:43;7.22;;;4.70;;
29384;SDS011;16367;48.736;9.218;2023-05-20T11:20:46;7.60;;;4.07;;
29384;SDS011;16367;48.736;9.218;2023-05-20T11:22:49;5.50;;;3.55;;
29384;SDS011;16367;48.736;9.218;2023-05-20T11:24:52;7.07;;;3.97;;
29384;SDS011;16367;48.736;9.218;2023-05-20T11:26:55;6.00;;;3.88;;
29384;SDS011;16367;48.736;9.218;2023-05-20T11:29:00;6.53;;;3.50;;
29384;SDS011;16367;48.736;9.218;2023-05-20T11:31:02;8.98;;;4.10;;
29384;SDS011;16367;48.736;9.218;2023-05-20T11:33:06;7.18;;;4.28;;
29384;SDS011;16367;48.736;9.218;2023-05-20T11:35:22;7.00;;;4.10;;
29384;SDS011;16367;48.736;9.218;2023-05-20T11:37:26;5.97;;;3.10;;
29384;SDS011;16367;48.736;9.218;2023-05-20T11:39:28;6.32;;;3.80;;
29384;SDS011;16367;48.736;9.218;2023-05-20T11:41:31;9.45;;;4.10;;
29384;SDS011;16367;48.736;9.218;2023-05-20T11:43:34;6.25;;;3.80;;
29384;SDS011;16367;48.736;9.218;2023-05-20T11:45:39;6.82;;;3.78;;
29384;SDS011;16367;48.736;9.218;2023-05-20T11:47:42;7.97;;;3.92;;
29384;SDS011;16367;48.736;9.218;2023-05-20T11:49:46;6.18;;;3.42;;
29384;SDS011;16367;48.736;9.218;2023-05-20T11:51:50;5.80;;;3.35;;
29384;SDS011;16367;48.736;9.218;2023-05-20T11:53:53;6.95;;;3.63;;
29384;SDS011;16367;48.736;9.218;2023-05-20T11:56:01;6.45;;;3.80;;
29384;SDS011;16367;48.736;9.218;2023-05-20T11:58:03;7.07;;;3.75;;
29384;SDS011;16367;48.736;9.218;2023-05-20T12:00:06;6.47;;;3.50;;
29384;SDS011;16367;48.736;9.218;2023-05-20T12:02:12;5.75;;;3.40;;
29384;SDS011;16367;48.736;9.218;2023-05-20T12:04:16;6.78;;;3.63;;
29384;SDS011;16367;48.736;9.218;2023-05-20T12:06:19;6.57;;;3.95;;
29384;SDS011;16367;48.736;9.218;2023-05-20T12:08:22;7.30;;;3.60;;
29384;SDS011;16367;48.736;9.218;2023-05-20T12:10:26;6.05;;;3.60;;
29384;SDS011;16367;48.736;9.218;2023-05-20T12:12:28;5.88;;;3.63;;
29384;SDS011;16367;48.736;9.218;2023-05-20T12:14:31;6.50;;;3.70;;
29384;SDS011;16367;48.736;9.218;2023-05-20T12:16:34;6.95;;;3.50;;
29384;SDS011;16367;48.736;9.218;2023-05-20T12:18:39;5.93;;;3.50;;
29384;SDS011;16367;48.736;9.218;2023-05-20T12:20:42;7.38;;;3.58;;
29384;SDS011;16367;48.736;9.218;2023-05-20T12:22:45;5.53;;;3.13;;
29384;SDS011;16367;48.736;9.218;2023-05-20T12:24:48;6.45;;;3.33;;
29384;SDS011;16367;48.736;9.218;2023-05-20T12:26:53;6.97;;;3.58;;
29384;SDS011;16367;48.736;9.218;2023-05-20T12:28:56;5.43;;;3.25;;